sensor_id;sensor_type;location;lat;lon;timestamp;P1;durP1;ratioP1;P2;durP2;ratioP2
11283;SDS011;5698;47.332;11.180;2023-07-16T00:01:53;6.00;;;5.20;;
11283;SDS011;5698;47.332;11.180;2023-07-16T00:04:20;6.87;;;5.43;;
11283;SDS011;5698;47.332;11.180;2023-07-16T00:06:47;5.50;;;5.00;;
11283;SDS011;5698;47.332;11.180;2023-07-16T00:09:14;5.07;;;4.67;;
11283;SDS011;5698;47.332;11.180;2023-07-16T00:11:42;10.87;;;5.67;;
11283;SDS011;5698;47.332;11.180;2023-07-16T00:14:09;6.20;;;5.37;;
11283;SDS011;5698;47.332;11.180;2023-07-16T00:16:36;5.53;;;5.00;;
11283;SDS011;5698;47.332;11.180;2023-07-16T00:19:03;6.33;;;5.07;;
11283;SDS011;5698;47.332;11.180;2023-07-16T00:21:30;6.17;;;5.57;;
11283;SDS011;5698;47.332;11.180;2023-07-16T00:23:58;5.73;;;5.13;;
11283;SDS011;5698;47.332;11.180;2023-07-16T00:26:25;5.83;;;5.27;;
11283;SDS011;5698;47.332;11.180;2023-07-16T00:28:53;6.63;;;5.53;;
11283;SDS011;5698;47.332;11.180;2023-07-16T00:31:20;6.53;;;5.50;;
11283;SDS011;5698;47.332;11.180;2023-07-16T00:33:47;6.17;;;5.57;;
11283;SDS011;5698;47.332;11.180;2023-07-16T00:36:14;5.80;;;5.20;;
11283;SDS011;5698;47.332;11.180;2023-07-16T00:38:41;7.33;;;5.40;;
11283;SDS011;5698;47.332;11.180;2023-07-16T00:41:10;6.10;;;5.50;;
11283;SDS011;5698;47.332;11.180;2023-07-16T00:43:37;7.70;;;5.60;;
11283;SDS011;5698;47.332;11.180;2023-07-16T00:46:05;8.00;;;5.77;;
11283;SDS011;5698;47.332;11.180;2023-07-16T00:48:33;6.97;;;5.60;;
11283;SDS011;5698;47.332;11.180;2023-07-16T00:51:00;6.50;;;5.30;;
11283;SDS011;5698;47.332;11.180;2023-07-16T00:53:29;6.47;;;5.83;;
11283;SDS011;5698;47.332;11.180;2023-07-16T00:55:56;6.63;;;5.27;;
11283;SDS011;5698;47.332;11.180;2023-07-16T00:58:23;5.80;;;5.30;;
11283;SDS011;5698;47.332;11.180;2023-07-16T01:00:50;5.73;;;5.23;;
11283;SDS011;5698;47.332;11.180;2023-07-16T01:03:19;8.13;;;5.60;;
11283;SDS011;5698;47.332;11.180;2023-07-16T01:05:47;6.33;;;5.60;;
11283;SDS011;5698;47.332;11.180;2023-07-16T01:08:26;7.17;;;5.50;;
11283;SDS011;5698;47.332;11.180;2023-07-16T01:10:56;5.97;;;5.43;;
11283;SDS011;5698;47.332;11.180;2023-07-16T01:13:24;5.77;;;5.23;;
11283;SDS011;5698;47.332;11.180;2023-07-16T01:15:51;7.50;;;5.50;;
11283;SDS011;5698;47.332;11.180;2023-07-16T01:18:20;6.13;;;5.40;;
11283;SDS011;5698;47.332;11.180;2023-07-16T01:20:47;6.27;;;5.60;;
11283;SDS011;5698;47.332;11.180;2023-07-16T01:23:21;6.27;;;5.00;;
11283;SDS011;5698;47.332;11.180;2023-07-16T01:26:06;7.13;;;5.60;;
11283;SDS011;5698;47.332;11.180;2023-07-16T01:28:46;6.10;;;5.47;;
11283;SDS011;5698;47.332;11.180;2023-07-16T01:31:36;6.20;;;5.60;;
11283;SDS011;5698;47.332;11.180;2023-07-16T01:34:04;6.60;;;5.80;;
11283;SDS011;5698;47.332;11.180;2023-07-16T01:36:32;6.00;;;5.50;;
11283;SDS011;5698;47.332;11.180;2023-07-16T01:39:01;5.83;;;5.33;;
11283;SDS011;5698;47.332;11.180;2023-07-16T01:41:29;6.10;;;5.23;;
11283;SDS011;5698;47.332;11.180;2023-07-16T01:43:56;5.60;;;5.10;;
11283;SDS011;5698;47.332;11.180;2023-07-16T01:46:25;6.27;;;5.40;;
11283;SDS011;5698;47.332;11.180;2023-07-16T01:48:52;5.90;;;5.03;;
11283;SDS011;5698;47.332;11.180;2023-07-16T01:51:19;5.40;;;4.90;;
11283;SDS011;5698;47.332;11.180;2023-07-16T01:53:46;4.93;;;4.40;;
11283;SDS011;5698;47.332;11.180;2023-07-16T01:56:13;4.57;;;4.17;;
11283;SDS011;5698;47.332;11.180;2023-07-16T01:58:40;6.47;;;4.37;;
11283;SDS011;5698;47.332;11.180;2023-07-16T02:01:07;8.50;;;4.93;;
11283;SDS011;5698;47.332;11.180;2023-07-16T02:03:35;4.60;;;4.10;;
11283;SDS011;5698;47.332;11.180;2023-07-16T02:06:02;7.13;;;4.10;;
11283;SDS011;5698;47.332;11.180;2023-07-16T02:08:29;4.67;;;4.27;;
11283;SDS011;5698;47.332;11.180;2023-07-16T02:10:56;5.03;;;4.50;;
11283;SDS011;5698;47.332;11.180;2023-07-16T02:13:23;4.97;;;4.20;;
11283;SDS011;5698;47.332;11.180;2023-07-16T02:15:50;3.93;;;3.63;;
11283;SDS011;5698;47.332;11.180;2023-07-16T02:18:17;5.30;;;4.23;;
11283;SDS011;5698;47.332;11.180;2023-07-16T02:20:45;10.00;;;3.73;;
11283;SDS011;5698;47.332;11.180;2023-07-16T02:23:12;5.07;;;4.27;;
11283;SDS011;5698;47.332;11.180;2023-07-16T02:25:39;5.00;;;4.07;;
11283;SDS011;5698;47.332;11.180;2023-07-16T02:28:06;5.10;;;3.87;;
11283;SDS011;5698;47.332;11.180;2023-07-16T02:30:33;4.70;;;4.30;;
11283;SDS011;5698;47.332;11.180;2023-07-16T02:33:00;4.57;;;4.10;;
11283;SDS011;5698;47.332;11.180;2023-07-16T02:35:27;4.70;;;4.30;;
11283;SDS011;5698;47.332;11.180;2023-07-16T02:37:55;4.47;;;4.03;;
11283;SDS011;5698;47.332;11.180;2023-07-16T02:40:22;4.90;;;4.40;;
11283;SDS011;5698;47.332;11.180;2023-07-16T02:42:49;4.30;;;3.90;;
11283;SDS011;5698;47.332;11.180;2023-07-16T02:45:16;4.53;;;4.13;;
11283;SDS011;5698;47.332;11.180;2023-07-16T02:47:43;4.10;;;3.70;;
11283;SDS011;5698;47.332;11.180;2023-07-16T02:50:10;4.80;;;4.40;;
11283;SDS011;5698;47.332;11.180;2023-07-16T02:52:37;4.80;;;4.40;;
11283;SDS011;5698;47.332;11.180;2023-07-16T02:55:06;4.80;;;4.30;;
11283;SDS011;5698;47.332;11.180;2023-07-16T02:57:34;6.23;;;4.27;;
11283;SDS011;5698;47.332;11.180;2023-07-16T03:00:01;4.80;;;4.40;;
11283;SDS011;5698;47.332;11.180;2023-07-16T03:02:28;5.97;;;4.23;;
11283;SDS011;5698;47.332;11.180;2023-07-16T03:04:55;5.57;;;4.40;;
11283;SDS011;5698;47.332;11.180;2023-07-16T03:07:22;4.40;;;4.00;;
11283;SDS011;5698;47.332;11.180;2023-07-16T03:09:49;5.90;;;4.23;;
11283;SDS011;5698;47.332;11.180;2023-07-16T03:12:17;4.00;;;3.70;;
11283;SDS011;5698;47.332;11.180;2023-07-16T03:14:44;4.27;;;3.93;;
11283;SDS011;5698;47.332;11.180;2023-07-16T03:17:11;5.20;;;4.53;;
11283;SDS011;5698;47.332;11.180;2023-07-16T03:19:38;4.80;;;3.97;;
11283;SDS011;5698;47.332;11.180;2023-07-16T03:22:05;5.83;;;4.30;;
11283;SDS011;5698;47.332;11.180;2023-07-16T03:24:32;4.80;;;4.40;;
11283;SDS011;5698;47.332;11.180;2023-07-16T03:26:59;4.57;;;4.17;;
11283;SDS011;5698;47.332;11.180;2023-07-16T03:29:27;4.83;;;4.33;;
11283;SDS011;5698;47.332;11.180;2023-07-16T03:31:54;6.07;;;4.73;;
11283;SDS011;5698;47.332;11.180;2023-07-16T03:34:21;4.90;;;4.40;;
11283;SDS011;5698;47.332;11.180;2023-07-16T03:36:49;5.93;;;4.73;;
11283;SDS011;5698;47.332;11.180;2023-07-16T03:39:16;4.43;;;4.03;;
11283;SDS011;5698;47.332;11.180;2023-07-16T03:41:43;8.67;;;5.03;;
11283;SDS011;5698;47.332;11.180;2023-07-16T03:44:10;6.17;;;4.60;;
11283;SDS011;5698;47.332;11.180;2023-07-16T03:46:38;5.13;;;4.53;;
11283;SDS011;5698;47.332;11.180;2023-07-16T03:49:06;7.57;;;4.10;;
11283;SDS011;5698;47.332;11.180;2023-07-16T03:51:33;5.53;;;4.40;;
11283;SDS011;5698;47.332;11.180;2023-07-16T03:54:00;5.00;;;4.50;;
11283;SDS011;5698;47.332;11.180;2023-07-16T03:56:27;7.20;;;4.33;;
11283;SDS011;5698;47.332;11.180;2023-07-16T03:58:54;4.97;;;4.50;;
11283;SDS011;5698;47.332;11.180;2023-07-16T04:01:21;5.17;;;4.30;;
11283;SDS011;5698;47.332;11.180;2023-07-16T04:03:49;5.57;;;4.83;;
11283;SDS011;5698;47.332;11.180;2023-07-16T04:06:16;5.10;;;4.60;;
11283;SDS011;5698;47.332;11.180;2023-07-16T04:08:43;4.90;;;4.30;;
11283;SDS011;5698;47.332;11.180;2023-07-16T04:11:10;4.77;;;4.33;;
11283;SDS011;5698;47.332;11.180;2023-07-16T04:13:37;6.10;;;4.37;;
11283;SDS011;5698;47.332;11.180;2023-07-16T04:16:04;6.03;;;5.10;;
11283;SDS011;5698;47.332;11.180;2023-07-16T04:18:31;5.37;;;4.70;;
11283;SDS011;5698;47.332;11.180;2023-07-16T04:21:00;6.73;;;4.77;;
11283;SDS011;5698;47.332;11.180;2023-07-16T04:23:27;5.33;;;4.60;;
11283;SDS011;5698;47.332;11.180;2023-07-16T04:25:55;6.07;;;4.57;;
11283;SDS011;5698;47.332;11.180;2023-07-16T04:28:22;5.70;;;5.10;;
11283;SDS011;5698;47.332;11.180;2023-07-16T04:30:49;5.40;;;4.90;;
11283;SDS011;5698;47.332;11.180;2023-07-16T04:33:16;6.13;;;4.87;;
11283;SDS011;5698;47.332;11.180;2023-07-16T04:35:44;5.27;;;4.77;;
11283;SDS011;5698;47.332;11.180;2023-07-16T04:38:12;5.00;;;4.60;;
11283;SDS011;5698;47.332;11.180;2023-07-16T04:40:41;4.90;;;4.50;;
11283;SDS011;5698;47.332;11.180;2023-07-16T04:43:08;8.00;;;4.77;;
11283;SDS011;5698;47.332;11.180;2023-07-16T04:45:35;5.53;;;4.67;;
11283;SDS011;5698;47.332;11.180;2023-07-16T04:48:04;7.57;;;5.07;;
11283;SDS011;5698;47.332;11.180;2023-07-16T04:50:31;6.70;;;4.63;;
11283;SDS011;5698;47.332;11.180;2023-07-16T04:52:58;5.43;;;4.93;;
11283;SDS011;5698;47.332;11.180;2023-07-16T04:55:26;7.10;;;4.80;;
11283;SDS011;5698;47.332;11.180;2023-07-16T04:57:53;4.90;;;4.50;;
11283;SDS011;5698;47.332;11.180;2023-07-16T05:00:22;5.93;;;5.03;;
11283;SDS011;5698;47.332;11.180;2023-07-16T05:02:49;5.80;;;5.07;;
11283;SDS011;5698;47.332;11.180;2023-07-16T05:05:16;5.57;;;5.07;;
11283;SDS011;5698;47.332;11.180;2023-07-16T05:07:43;5.63;;;5.13;;
11283;SDS011;5698;47.332;11.180;2023-07-16T05:10:10;6.20;;;5.60;;
11283;SDS011;5698;47.332;11.180;2023-07-16T05:12:38;6.00;;;5.50;;
11283;SDS011;5698;47.332;11.180;2023-07-16T05:15:06;5.97;;;5.00;;
11283;SDS011;5698;47.332;11.180;2023-07-16T05:17:34;5.37;;;4.63;;
11283;SDS011;5698;47.332;11.180;2023-07-16T05:20:01;6.87;;;5.23;;
11283;SDS011;5698;47.332;11.180;2023-07-16T05:22:29;6.33;;;5.10;;
11283;SDS011;5698;47.332;11.180;2023-07-16T05:24:56;5.33;;;4.83;;
11283;SDS011;5698;47.332;11.180;2023-07-16T05:27:23;6.60;;;4.73;;
11283;SDS011;5698;47.332;11.180;2023-07-16T05:29:51;5.07;;;4.67;;
11283;SDS011;5698;47.332;11.180;2023-07-16T05:32:18;5.80;;;5.00;;
11283;SDS011;5698;47.332;11.180;2023-07-16T05:34:45;5.43;;;4.90;;
11283;SDS011;5698;47.332;11.180;2023-07-16T05:37:12;5.60;;;5.10;;
11283;SDS011;5698;47.332;11.180;2023-07-16T05:39:39;7.13;;;5.00;;
11283;SDS011;5698;47.332;11.180;2023-07-16T05:42:06;5.30;;;4.80;;
11283;SDS011;5698;47.332;11.180;2023-07-16T05:44:33;6.77;;;5.13;;
11283;SDS011;5698;47.332;11.180;2023-07-16T05:47:01;5.90;;;4.93;;
11283;SDS011;5698;47.332;11.180;2023-07-16T05:49:31;4.73;;;4.23;;
11283;SDS011;5698;47.332;11.180;2023-07-16T05:51:58;5.23;;;4.70;;
11283;SDS011;5698;47.332;11.180;2023-07-16T05:54:25;6.10;;;4.90;;
11283;SDS011;5698;47.332;11.180;2023-07-16T05:56:52;5.13;;;4.73;;
11283;SDS011;5698;47.332;11.180;2023-07-16T05:59:19;7.33;;;5.20;;
11283;SDS011;5698;47.332;11.180;2023-07-16T06:01:46;5.27;;;4.80;;
11283;SDS011;5698;47.332;11.180;2023-07-16T06:04:15;5.77;;;5.27;;
11283;SDS011;5698;47.332;11.180;2023-07-16T06:06:41;6.17;;;5.17;;
11283;SDS011;5698;47.332;11.180;2023-07-16T06:09:08;5.43;;;4.93;;
11283;SDS011;5698;47.332;11.180;2023-07-16T06:11:35;5.47;;;5.00;;
11283;SDS011;5698;47.332;11.180;2023-07-16T06:14:02;5.40;;;4.53;;
11283;SDS011;5698;47.332;11.180;2023-07-16T06:16:30;6.30;;;5.00;;
11283;SDS011;5698;47.332;11.180;2023-07-16T06:18:57;5.47;;;4.67;;
11283;SDS011;5698;47.332;11.180;2023-07-16T06:21:25;4.70;;;4.30;;
11283;SDS011;5698;47.332;11.180;2023-07-16T06:23:52;6.07;;;4.60;;
11283;SDS011;5698;47.332;11.180;2023-07-16T06:26:19;5.63;;;5.10;;
11283;SDS011;5698;47.332;11.180;2023-07-16T06:28:46;5.67;;;4.80;;
11283;SDS011;5698;47.332;11.180;2023-07-16T06:31:14;4.57;;;4.13;;
11283;SDS011;5698;47.332;11.180;2023-07-16T06:33:41;5.20;;;3.87;;
11283;SDS011;5698;47.332;11.180;2023-07-16T06:36:08;3.90;;;3.60;;
11283;SDS011;5698;47.332;11.180;2023-07-16T06:38:36;4.00;;;3.60;;
11283;SDS011;5698;47.332;11.180;2023-07-16T06:41:03;3.83;;;3.37;;
11283;SDS011;5698;47.332;11.180;2023-07-16T06:43:30;4.73;;;3.30;;
11283;SDS011;5698;47.332;11.180;2023-07-16T06:45:57;3.17;;;2.87;;
11283;SDS011;5698;47.332;11.180;2023-07-16T06:48:24;3.10;;;2.50;;
11283;SDS011;5698;47.332;11.180;2023-07-16T06:50:51;3.00;;;2.27;;
11283;SDS011;5698;47.332;11.180;2023-07-16T06:53:18;2.23;;;1.80;;
11283;SDS011;5698;47.332;11.180;2023-07-16T06:55:48;1.80;;;1.70;;
11283;SDS011;5698;47.332;11.180;2023-07-16T06:58:15;1.60;;;1.50;;
11283;SDS011;5698;47.332;11.180;2023-07-16T07:00:42;1.43;;;1.20;;
11283;SDS011;5698;47.332;11.180;2023-07-16T07:03:09;1.77;;;1.40;;
11283;SDS011;5698;47.332;11.180;2023-07-16T07:05:40;1.30;;;1.20;;
11283;SDS011;5698;47.332;11.180;2023-07-16T07:08:07;1.30;;;1.20;;
11283;SDS011;5698;47.332;11.180;2023-07-16T07:10:34;1.93;;;1.10;;
11283;SDS011;5698;47.332;11.180;2023-07-16T07:13:04;1.30;;;1.20;;
11283;SDS011;5698;47.332;11.180;2023-07-16T07:15:31;2.00;;;1.20;;
11283;SDS011;5698;47.332;11.180;2023-07-16T07:17:58;2.67;;;1.30;;
11283;SDS011;5698;47.332;11.180;2023-07-16T07:20:25;1.30;;;1.20;;
11283;SDS011;5698;47.332;11.180;2023-07-16T07:22:52;1.60;;;1.40;;
11283;SDS011;5698;47.332;11.180;2023-07-16T07:25:19;1.20;;;1.20;;
11283;SDS011;5698;47.332;11.180;2023-07-16T07:27:46;1.33;;;1.23;;
11283;SDS011;5698;47.332;11.180;2023-07-16T07:30:14;1.30;;;1.20;;
11283;SDS011;5698;47.332;11.180;2023-07-16T07:32:41;1.47;;;1.37;;
11283;SDS011;5698;47.332;11.180;2023-07-16T07:35:08;1.43;;;1.33;;
11283;SDS011;5698;47.332;11.180;2023-07-16T07:37:35;1.20;;;1.10;;
11283;SDS011;5698;47.332;11.180;2023-07-16T07:40:03;1.30;;;1.20;;
11283;SDS011;5698;47.332;11.180;2023-07-16T07:42:31;1.40;;;1.30;;
11283;SDS011;5698;47.332;11.180;2023-07-16T07:44:57;2.83;;;1.60;;
11283;SDS011;5698;47.332;11.180;2023-07-16T07:47:26;1.40;;;1.30;;
11283;SDS011;5698;47.332;11.180;2023-07-16T07:49:53;2.10;;;1.80;;
11283;SDS011;5698;47.332;11.180;2023-07-16T07:52:20;2.00;;;1.73;;
11283;SDS011;5698;47.332;11.180;2023-07-16T07:54:47;2.23;;;1.80;;
11283;SDS011;5698;47.332;11.180;2023-07-16T07:57:15;1.90;;;1.70;;
11283;SDS011;5698;47.332;11.180;2023-07-16T07:59:42;1.97;;;1.77;;
11283;SDS011;5698;47.332;11.180;2023-07-16T08:02:09;2.23;;;2.03;;
11283;SDS011;5698;47.332;11.180;2023-07-16T08:04:37;1.70;;;1.60;;
11283;SDS011;5698;47.332;11.180;2023-07-16T08:07:04;1.80;;;1.70;;
11283;SDS011;5698;47.332;11.180;2023-07-16T08:09:31;2.20;;;1.67;;
11283;SDS011;5698;47.332;11.180;2023-07-16T08:11:58;2.50;;;2.30;;
11283;SDS011;5698;47.332;11.180;2023-07-16T08:14:25;2.20;;;1.97;;
11283;SDS011;5698;47.332;11.180;2023-07-16T08:16:54;2.03;;;1.83;;
11283;SDS011;5698;47.332;11.180;2023-07-16T08:19:20;1.73;;;1.63;;
11283;SDS011;5698;47.332;11.180;2023-07-16T08:21:49;1.60;;;1.50;;
11283;SDS011;5698;47.332;11.180;2023-07-16T08:24:16;2.47;;;1.50;;
11283;SDS011;5698;47.332;11.180;2023-07-16T08:26:43;1.50;;;1.40;;
11283;SDS011;5698;47.332;11.180;2023-07-16T08:29:10;2.70;;;1.93;;
11283;SDS011;5698;47.332;11.180;2023-07-16T08:31:37;1.90;;;1.63;;
11283;SDS011;5698;47.332;11.180;2023-07-16T08:34:04;2.20;;;1.80;;
11283;SDS011;5698;47.332;11.180;2023-07-16T08:36:32;1.90;;;1.63;;
11283;SDS011;5698;47.332;11.180;2023-07-16T08:39:01;3.03;;;1.70;;
11283;SDS011;5698;47.332;11.180;2023-07-16T08:41:28;1.80;;;1.70;;
11283;SDS011;5698;47.332;11.180;2023-07-16T08:43:55;2.47;;;1.80;;
11283;SDS011;5698;47.332;11.180;2023-07-16T08:46:23;1.63;;;1.50;;
11283;SDS011;5698;47.332;11.180;2023-07-16T08:48:50;1.50;;;1.40;;
11283;SDS011;5698;47.332;11.180;2023-07-16T08:51:19;1.97;;;1.40;;
11283;SDS011;5698;47.332;11.180;2023-07-16T08:53:47;2.20;;;1.73;;
11283;SDS011;5698;47.332;11.180;2023-07-16T08:56:16;1.93;;;1.50;;
11283;SDS011;5698;47.332;11.180;2023-07-16T08:58:43;2.03;;;1.80;;
11283;SDS011;5698;47.332;11.180;2023-07-16T09:01:10;1.77;;;1.67;;
11283;SDS011;5698;47.332;11.180;2023-07-16T09:03:38;3.07;;;1.73;;
11283;SDS011;5698;47.332;11.180;2023-07-16T09:06:06;2.10;;;1.70;;
11283;SDS011;5698;47.332;11.180;2023-07-16T09:08:33;1.70;;;1.43;;
11283;SDS011;5698;47.332;11.180;2023-07-16T09:11:00;1.93;;;1.60;;
11283;SDS011;5698;47.332;11.180;2023-07-16T09:13:29;1.53;;;1.33;;
11283;SDS011;5698;47.332;11.180;2023-07-16T09:15:56;2.13;;;1.70;;
11283;SDS011;5698;47.332;11.180;2023-07-16T09:18:24;1.70;;;1.60;;
11283;SDS011;5698;47.332;11.180;2023-07-16T09:20:56;1.93;;;1.50;;
11283;SDS011;5698;47.332;11.180;2023-07-16T09:23:23;2.57;;;1.70;;
11283;SDS011;5698;47.332;11.180;2023-07-16T09:25:52;1.70;;;1.60;;
11283;SDS011;5698;47.332;11.180;2023-07-16T09:28:19;1.67;;;1.57;;
11283;SDS011;5698;47.332;11.180;2023-07-16T09:30:49;1.90;;;1.80;;
11283;SDS011;5698;47.332;11.180;2023-07-16T09:33:18;1.73;;;1.63;;
11283;SDS011;5698;47.332;11.180;2023-07-16T09:35:47;2.20;;;1.47;;
11283;SDS011;5698;47.332;11.180;2023-07-16T09:38:15;1.93;;;1.53;;
11283;SDS011;5698;47.332;11.180;2023-07-16T09:40:42;2.10;;;1.90;;
11283;SDS011;5698;47.332;11.180;2023-07-16T09:43:10;2.00;;;1.83;;
11283;SDS011;5698;47.332;11.180;2023-07-16T09:45:37;2.83;;;1.73;;
11283;SDS011;5698;47.332;11.180;2023-07-16T09:48:06;1.80;;;1.70;;
11283;SDS011;5698;47.332;11.180;2023-07-16T09:50:34;2.50;;;1.70;;
11283;SDS011;5698;47.332;11.180;2023-07-16T09:53:01;1.90;;;1.60;;
11283;SDS011;5698;47.332;11.180;2023-07-16T09:55:30;4.63;;;1.97;;
11283;SDS011;5698;47.332;11.180;2023-07-16T09:57:59;1.97;;;1.70;;
11283;SDS011;5698;47.332;11.180;2023-07-16T10:00:28;1.80;;;1.70;;
11283;SDS011;5698;47.332;11.180;2023-07-16T10:02:57;2.27;;;1.70;;
11283;SDS011;5698;47.332;11.180;2023-07-16T10:05:26;2.73;;;1.90;;
11283;SDS011;5698;47.332;11.180;2023-07-16T10:07:54;2.83;;;2.00;;
11283;SDS011;5698;47.332;11.180;2023-07-16T10:10:25;2.17;;;1.70;;
11283;SDS011;5698;47.332;11.180;2023-07-16T10:12:56;1.90;;;1.40;;
11283;SDS011;5698;47.332;11.180;2023-07-16T10:15:25;1.90;;;1.80;;
11283;SDS011;5698;47.332;11.180;2023-07-16T10:17:53;2.17;;;1.90;;
11283;SDS011;5698;47.332;11.180;2023-07-16T10:20:29;2.23;;;1.80;;
11283;SDS011;5698;47.332;11.180;2023-07-16T10:22:57;2.10;;;1.90;;
11283;SDS011;5698;47.332;11.180;2023-07-16T10:25:25;2.67;;;2.07;;
11283;SDS011;5698;47.332;11.180;2023-07-16T10:27:54;2.07;;;1.90;;
11283;SDS011;5698;47.332;11.180;2023-07-16T10:30:22;2.00;;;1.80;;
11283;SDS011;5698;47.332;11.180;2023-07-16T10:32:50;2.38;;;1.90;;
11283;SDS011;5698;47.332;11.180;2023-07-16T10:35:18;2.28;;;2.08;;
11283;SDS011;5698;47.332;11.180;2023-07-16T10:37:46;2.35;;;2.08;;
11283;SDS011;5698;47.332;11.180;2023-07-16T10:40:14;2.72;;;2.53;;
11283;SDS011;5698;47.332;11.180;2023-07-16T10:42:42;2.47;;;2.28;;
11283;SDS011;5698;47.332;11.180;2023-07-16T10:45:11;2.28;;;2.08;;
11283;SDS011;5698;47.332;11.180;2023-07-16T10:47:39;3.20;;;2.50;;
11283;SDS011;5698;47.332;11.180;2023-07-16T10:50:19;2.72;;;2.47;;
11283;SDS011;5698;47.332;11.180;2023-07-16T10:52:51;2.75;;;2.42;;
11283;SDS011;5698;47.332;11.180;2023-07-16T10:55:18;5.65;;;2.80;;
11283;SDS011;5698;47.332;11.180;2023-07-16T10:57:46;3.17;;;2.67;;
11283;SDS011;5698;47.332;11.180;2023-07-16T11:00:14;2.88;;;2.67;;
11283;SDS011;5698;47.332;11.180;2023-07-16T11:02:42;2.92;;;2.60;;
11283;SDS011;5698;47.332;11.180;2023-07-16T11:05:09;3.05;;;2.75;;
11283;SDS011;5698;47.332;11.180;2023-07-16T11:07:37;2.38;;;2.08;;
11283;SDS011;5698;47.332;11.180;2023-07-16T11:10:10;4.15;;;2.30;;
11283;SDS011;5698;47.332;11.180;2023-07-16T11:12:37;9.85;;;2.72;;
11283;SDS011;5698;47.332;11.180;2023-07-16T11:15:04;3.15;;;2.25;;
11283;SDS011;5698;47.332;11.180;2023-07-16T11:17:32;3.00;;;2.33;;
11283;SDS011;5698;47.332;11.180;2023-07-16T11:19:59;2.10;;;1.90;;
11283;SDS011;5698;47.332;11.180;2023-07-16T11:22:27;2.03;;;1.90;;
11283;SDS011;5698;47.332;11.180;2023-07-16T11:24:54;2.70;;;2.08;;
11283;SDS011;5698;47.332;11.180;2023-07-16T11:27:24;3.13;;;2.40;;
11283;SDS011;5698;47.332;11.180;2023-07-16T11:29:52;3.10;;;2.38;;
11283;SDS011;5698;47.332;11.180;2023-07-16T11:32:28;2.03;;;1.83;;
11283;SDS011;5698;47.332;11.180;2023-07-16T11:34:56;2.10;;;1.92;;
11283;SDS011;5698;47.332;11.180;2023-07-16T11:37:24;2.10;;;2.00;;
11283;SDS011;5698;47.332;11.180;2023-07-16T11:39:54;2.22;;;2.03;;
11283;SDS011;5698;47.332;11.180;2023-07-16T11:42:29;2.33;;;2.13;;
11283;SDS011;5698;47.332;11.180;2023-07-16T11:44:57;2.40;;;2.20;;
11283;SDS011;5698;47.332;11.180;2023-07-16T11:47:24;1.98;;;1.88;;
11283;SDS011;5698;47.332;11.180;2023-07-16T11:49:52;1.80;;;1.70;;
11283;SDS011;5698;47.332;11.180;2023-07-16T11:52:19;2.30;;;2.10;;
11283;SDS011;5698;47.332;11.180;2023-07-16T11:54:47;2.17;;;2.00;;
11283;SDS011;5698;47.332;11.180;2023-07-16T11:57:14;2.90;;;2.70;;
11283;SDS011;5698;47.332;11.180;2023-07-16T11:59:43;2.35;;;2.15;;
11283;SDS011;5698;47.332;11.180;2023-07-16T12:02:10;3.00;;;2.42;;
11283;SDS011;5698;47.332;11.180;2023-07-16T12:04:37;2.53;;;2.25;;
11283;SDS011;5698;47.332;11.180;2023-07-16T12:07:04;2.92;;;2.28;;
11283;SDS011;5698;47.332;11.180;2023-07-16T12:09:31;2.92;;;2.65;;
11283;SDS011;5698;47.332;11.180;2023-07-16T12:11:58;2.75;;;2.40;;
11283;SDS011;5698;47.332;11.180;2023-07-16T12:14:25;2.92;;;2.65;;
11283;SDS011;5698;47.332;11.180;2023-07-16T12:16:54;3.85;;;2.70;;
11283;SDS011;5698;47.332;11.180;2023-07-16T12:19:21;3.13;;;2.58;;
11283;SDS011;5698;47.332;11.180;2023-07-16T12:21:48;3.45;;;2.60;;
11283;SDS011;5698;47.332;11.180;2023-07-16T12:24:15;2.70;;;2.50;;
11283;SDS011;5698;47.332;11.180;2023-07-16T12:26:42;2.88;;;2.63;;
11283;SDS011;5698;47.332;11.180;2023-07-16T12:29:09;2.80;;;2.60;;
11283;SDS011;5698;47.332;11.180;2023-07-16T12:31:36;2.58;;;2.38;;
11283;SDS011;5698;47.332;11.180;2023-07-16T12:34:05;2.90;;;2.60;;
11283;SDS011;5698;47.332;11.180;2023-07-16T12:36:32;2.47;;;2.28;;
11283;SDS011;5698;47.332;11.180;2023-07-16T12:38:59;2.40;;;2.20;;
11283;SDS011;5698;47.332;11.180;2023-07-16T12:41:26;3.38;;;2.70;;
11283;SDS011;5698;47.332;11.180;2023-07-16T12:43:53;2.70;;;2.50;;
11283;SDS011;5698;47.332;11.180;2023-07-16T12:46:20;2.33;;;2.20;;
11283;SDS011;5698;47.332;11.180;2023-07-16T12:48:47;2.70;;;2.50;;
11283;SDS011;5698;47.332;11.180;2023-07-16T12:51:15;2.55;;;2.15;;
11283;SDS011;5698;47.332;11.180;2023-07-16T12:53:42;3.33;;;2.08;;
11283;SDS011;5698;47.332;11.180;2023-07-16T12:56:09;2.97;;;2.53;;
11283;SDS011;5698;47.332;11.180;2023-07-16T12:58:36;4.63;;;2.75;;
11283;SDS011;5698;47.332;11.180;2023-07-16T13:01:03;2.80;;;2.47;;
11283;SDS011;5698;47.332;11.180;2023-07-16T13:03:30;3.83;;;2.25;;
11283;SDS011;5698;47.332;11.180;2023-07-16T13:05:57;4.53;;;2.53;;
11283;SDS011;5698;47.332;11.180;2023-07-16T13:08:25;2.95;;;2.63;;
11283;SDS011;5698;47.332;11.180;2023-07-16T13:10:52;2.45;;;2.25;;
11283;SDS011;5698;47.332;11.180;2023-07-16T13:13:20;2.90;;;2.38;;
11283;SDS011;5698;47.332;11.180;2023-07-16T13:15:47;2.50;;;2.30;;
11283;SDS011;5698;47.332;11.180;2023-07-16T13:18:14;2.25;;;2.15;;
11283;SDS011;5698;47.332;11.180;2023-07-16T13:20:42;2.45;;;2.25;;
11283;SDS011;5698;47.332;11.180;2023-07-16T13:23:09;2.50;;;2.30;;
11283;SDS011;5698;47.332;11.180;2023-07-16T13:25:37;2.58;;;2.40;;
11283;SDS011;5698;47.332;11.180;2023-07-16T13:28:04;3.28;;;2.40;;
11283;SDS011;5698;47.332;11.180;2023-07-16T13:30:31;3.67;;;2.08;;
11283;SDS011;5698;47.332;11.180;2023-07-16T13:32:58;2.80;;;2.15;;
11283;SDS011;5698;47.332;11.180;2023-07-16T13:35:26;2.58;;;2.20;;
11283;SDS011;5698;47.332;11.180;2023-07-16T13:37:54;2.40;;;2.20;;
11283;SDS011;5698;47.332;11.180;2023-07-16T13:40:21;2.53;;;2.33;;
11283;SDS011;5698;47.332;11.180;2023-07-16T13:42:49;2.75;;;2.25;;
11283;SDS011;5698;47.332;11.180;2023-07-16T13:45:16;3.00;;;2.10;;
11283;SDS011;5698;47.332;11.180;2023-07-16T13:47:43;2.83;;;2.25;;
11283;SDS011;5698;47.332;11.180;2023-07-16T13:50:10;2.63;;;2.42;;
11283;SDS011;5698;47.332;11.180;2023-07-16T13:52:37;2.45;;;2.25;;
11283;SDS011;5698;47.332;11.180;2023-07-16T13:55:04;2.50;;;2.30;;
11283;SDS011;5698;47.332;11.180;2023-07-16T13:57:32;2.25;;;2.15;;
11283;SDS011;5698;47.332;11.180;2023-07-16T14:00:00;3.30;;;2.10;;
11283;SDS011;5698;47.332;11.180;2023-07-16T14:02:27;2.40;;;2.20;;
11283;SDS011;5698;47.332;11.180;2023-07-16T14:04:54;2.20;;;2.00;;
11283;SDS011;5698;47.332;11.180;2023-07-16T14:07:21;2.83;;;2.50;;
11283;SDS011;5698;47.332;11.180;2023-07-16T14:09:48;3.28;;;2.35;;
11283;SDS011;5698;47.332;11.180;2023-07-16T14:12:15;3.83;;;2.70;;
11283;SDS011;5698;47.332;11.180;2023-07-16T14:14:42;2.53;;;2.33;;
11283;SDS011;5698;47.332;11.180;2023-07-16T14:17:11;2.80;;;2.20;;
11283;SDS011;5698;47.332;11.180;2023-07-16T14:19:38;3.35;;;2.22;;
11283;SDS011;5698;47.332;11.180;2023-07-16T14:22:05;2.23;;;2.03;;
11283;SDS011;5698;47.332;11.180;2023-07-16T14:24:32;2.70;;;2.10;;
11283;SDS011;5698;47.332;11.180;2023-07-16T14:26:59;2.93;;;2.30;;
11283;SDS011;5698;47.332;11.180;2023-07-16T14:29:27;3.03;;;2.27;;
11283;SDS011;5698;47.332;11.180;2023-07-16T14:31:54;2.57;;;2.37;;
11283;SDS011;5698;47.332;11.180;2023-07-16T14:34:23;2.27;;;2.17;;
11283;SDS011;5698;47.332;11.180;2023-07-16T14:36:51;2.30;;;2.10;;
11283;SDS011;5698;47.332;11.180;2023-07-16T14:39:18;3.00;;;2.47;;
11283;SDS011;5698;47.332;11.180;2023-07-16T14:41:46;2.33;;;2.10;;
11283;SDS011;5698;47.332;11.180;2023-07-16T14:44:13;4.33;;;2.60;;
11283;SDS011;5698;47.332;11.180;2023-07-16T14:46:40;2.77;;;2.13;;
11283;SDS011;5698;47.332;11.180;2023-07-16T14:49:07;2.53;;;2.33;;
11283;SDS011;5698;47.332;11.180;2023-07-16T14:51:35;2.40;;;2.20;;